createdAt,value
2022-10-18T00:02:06.472Z,98080.56
2022-10-18T00:04:33.224Z,98075.94
2022-10-18T00:06:59.660Z,98077.19
2022-10-18T00:09:27.553Z,98072.59
2022-10-18T00:11:55.148Z,98067.97
2022-10-18T00:14:21.986Z,98071.81
2022-10-18T00:16:48.446Z,98067.03
2022-10-18T00:19:14.949Z,98078.28
2022-10-18T00:21:41.409Z,98068.41
2022-10-18T00:24:07.992Z,98064.38
2022-10-18T00:26:34.435Z,98085.66
2022-10-18T00:29:04.077Z,98078.56
2022-10-18T00:31:33.291Z,98074.56
2022-10-18T00:34:02.506Z,98077.34
2022-10-18T00:36:31.221Z,98079.66
2022-10-18T00:38:57.959Z,98067.78
2022-10-18T00:41:30.813Z,98071.91
2022-10-18T00:44:01.562Z,98057.75
2022-10-18T00:46:33.817Z,98046.47
2022-10-18T00:49:03.452Z,98064.06
2022-10-18T00:51:59.071Z,98047.88
2022-10-18T00:54:26.776Z,98054.34
2022-10-18T00:56:53.216Z,98056.69
2022-10-18T00:59:20.179Z,98070.69
2022-10-18T01:01:47.118Z,98079.50
2022-10-18T01:04:15.534Z,98065.28
2022-10-18T01:06:52.833Z,98064.38
2022-10-18T01:09:45.922Z,98051.13
2022-10-18T01:12:45.057Z,98062.06
2022-10-18T01:15:29.626Z,98064.38
2022-10-18T01:18:16.767Z,98060.22
2022-10-18T01:21:11.202Z,98057.78
2022-10-18T01:23:56.168Z,98066.06
2022-10-18T01:26:40.730Z,98058.38
2022-10-18T01:29:44.834Z,98057.16
2022-10-18T01:32:23.007Z,98052.53
2022-10-18T01:34:52.798Z,98040.66
2022-10-18T01:37:21.805Z,98034.38
2022-10-18T01:39:50.623Z,98043.16
2022-10-18T01:42:20.147Z,98031.28
2022-10-18T01:44:48.180Z,98032.53
2022-10-18T01:47:15.624Z,98040.66
2022-10-18T01:49:42.206Z,98024.50
2022-10-18T01:52:13.169Z,98011.09
2022-10-18T01:54:44.743Z,98019.75
2022-10-18T01:57:59.267Z,98018.81
2022-10-18T02:00:40.485Z,98013.72
2022-10-18T02:03:10.879Z,98019.09
2022-10-18T02:05:43.756Z,98014.63
2022-10-18T02:08:23.778Z,98023.53
2022-10-18T02:11:00.945Z,98036.03
2022-10-18T02:13:33.162Z,98020.19
2022-10-18T02:16:04.738Z,98013.84
2022-10-18T02:18:39.176Z,98025.13
2022-10-18T02:21:10.717Z,98043.28
2022-10-18T02:23:38.840Z,98052.66
2022-10-18T02:26:06.527Z,98092.25
2022-10-18T02:28:32.912Z,98101.34
2022-10-18T02:31:09.843Z,98106.63
2022-10-18T02:34:00.629Z,98094.16
2022-10-18T02:36:42.839Z,98085.69
2022-10-18T02:39:16.617Z,98073.69
2022-10-18T02:41:43.560Z,98085.25
2022-10-18T02:44:10.865Z,98089.84
2022-10-18T02:46:37.382Z,98062.59
2022-10-18T02:49:03.820Z,98062.91
2022-10-18T02:51:31.242Z,98059.97
2022-10-18T02:53:57.692Z,98051.97
2022-10-18T02:56:24.091Z,98041.66
2022-10-18T02:58:50.437Z,98039.34
2022-10-18T03:01:16.912Z,98032.88
2022-10-18T03:03:43.331Z,98026.72
2022-10-18T03:06:09.689Z,98026.56
2022-10-18T03:08:36.379Z,98027.50
2022-10-18T03:11:02.817Z,98017.00
2022-10-18T03:15:56.490Z,98016.72
2022-10-18T03:18:22.857Z,98008.09
2022-10-18T03:20:49.370Z,98010.56
2022-10-18T03:23:15.737Z,98007.00
2022-10-18T03:25:45.635Z,98012.41
2022-10-18T03:28:13.075Z,98016.56
2022-10-18T03:30:39.474Z,98015.78
2022-10-18T03:33:06.454Z,98023.97
2022-10-18T03:35:32.923Z,98016.09
2022-10-18T03:37:59.269Z,98028.09
2022-10-18T03:40:25.754Z,98043.34
2022-10-18T03:42:52.171Z,98027.63
2022-10-18T03:45:18.556Z,98034.09
2022-10-18T03:47:44.992Z,98034.25
2022-10-18T03:50:11.382Z,98035.50
2022-10-18T03:52:37.797Z,98045.19
2022-10-18T03:55:04.591Z,98045.03
2022-10-18T03:57:30.982Z,98053.97
2022-10-18T03:59:57.324Z,98047.97
2022-10-18T04:02:23.720Z,98054.75
2022-10-18T04:04:50.400Z,98049.19
2022-10-18T04:07:16.820Z,98045.97
2022-10-18T04:09:43.170Z,98043.78
2022-10-18T04:12:09.594Z,98048.25
2022-10-18T04:14:35.947Z,98046.09
2022-10-18T04:17:02.724Z,98056.75
2022-10-18T04:19:29.081Z,98059.38
2022-10-18T04:21:55.499Z,98052.91
2022-10-18T04:24:21.991Z,98061.38
2022-10-18T04:26:48.380Z,98046.22
2022-10-18T04:29:14.821Z,98062.84
2022-10-18T04:31:41.175Z,98061.97
2022-10-18T04:34:07.504Z,98065.06
2022-10-18T04:36:33.885Z,98063.81
2022-10-18T04:39:00.248Z,98065.38
2022-10-18T04:41:26.590Z,98047.47
2022-10-18T04:43:52.961Z,98068.00
2022-10-18T04:46:19.292Z,98055.31
2022-10-18T04:48:45.674Z,98052.69
2022-10-18T04:51:12.065Z,98061.22
2022-10-18T04:53:38.514Z,98044.53
2022-10-18T04:56:05.198Z,98052.91
2022-10-18T04:58:32.558Z,98037.16
2022-10-18T05:00:58.921Z,98046.53
2022-10-18T05:03:25.304Z,98051.47
2022-10-18T05:06:06.735Z,98034.22
2022-10-18T05:08:35.209Z,98055.63
2022-10-18T05:11:02.889Z,98057.16
2022-10-18T05:13:30.369Z,98051.94
2022-10-18T05:15:56.778Z,98035.13
2022-10-18T05:18:23.154Z,98043.28
2022-10-18T05:20:49.486Z,98046.22
2022-10-18T05:23:15.834Z,98036.38
2022-10-18T05:25:42.947Z,98047.91
2022-10-18T05:28:27.180Z,98044.69
2022-10-18T05:30:56.110Z,98053.94
2022-10-18T05:33:22.534Z,98061.00
2022-10-18T05:35:48.878Z,98043.31
2022-10-18T05:38:15.233Z,98061.50
2022-10-18T05:40:41.583Z,98061.38
2022-10-18T05:43:07.933Z,98068.44
2022-10-18T05:45:34.257Z,98053.75
2022-10-18T05:48:00.689Z,98062.28
2022-10-18T05:50:28.246Z,98064.41
2022-10-18T05:53:06.828Z,98062.56
2022-10-18T05:55:44.178Z,98054.09
2022-10-18T05:58:10.532Z,98064.41
2022-10-18T06:00:36.874Z,98056.38
2022-10-18T06:03:03.346Z,98060.75
2022-10-18T06:05:29.809Z,98061.00
2022-10-18T06:07:56.506Z,98061.00
2022-10-18T06:10:23.157Z,98065.00
2022-10-18T06:12:49.540Z,98067.78
2022-10-18T06:15:15.994Z,98068.59
2022-10-18T06:17:42.371Z,98061.94
2022-10-18T06:20:09.133Z,98069.78
2022-10-18T06:22:35.551Z,98069.19
2022-10-18T06:25:01.959Z,98080.59
2022-10-18T06:27:28.395Z,98083.03
2022-10-18T06:29:54.773Z,98079.94
2022-10-18T06:32:21.159Z,98078.41
2022-10-18T06:34:47.516Z,98089.03
2022-10-18T06:37:13.876Z,98068.09
2022-10-18T06:39:40.917Z,98063.31
2022-10-18T06:42:07.733Z,98080.84
2022-10-18T06:44:34.101Z,98079.19
2022-10-18T06:47:00.475Z,98076.69
2022-10-18T06:49:26.865Z,98080.09
2022-10-18T06:51:53.738Z,98091.97
2022-10-18T06:54:20.171Z,98086.72
2022-10-18T06:56:46.610Z,98097.19
2022-10-18T06:59:13.047Z,98103.81
2022-10-18T07:01:39.539Z,98105.66
2022-10-18T07:04:06.008Z,98120.13
2022-10-18T07:06:32.473Z,98120.13
2022-10-18T07:08:58.871Z,98126.19
2022-10-18T07:11:26.748Z,98121.81
2022-10-18T07:13:54.938Z,98116.47
2022-10-18T07:16:21.327Z,98120.78
2022-10-18T07:18:51.127Z,98130.34
2022-10-18T07:21:23.178Z,98124.03
2022-10-18T07:23:50.433Z,98122.03
2022-10-18T07:26:22.393Z,98132.66
2022-10-18T07:28:51.944Z,98121.09
2022-10-18T07:31:18.526Z,98128.03
2022-10-18T07:33:44.927Z,98139.91
2022-10-18T07:36:12.966Z,98136.06
2022-10-18T07:38:39.757Z,98133.91
2022-10-18T07:41:08.004Z,98141.31
2022-10-18T07:43:35.398Z,98129.13
2022-10-18T07:46:04.514Z,98135.00
2022-10-18T07:48:30.935Z,98139.16
2022-10-18T07:51:01.748Z,98147.78
2022-10-18T07:53:29.111Z,98141.47
2022-10-18T07:56:05.800Z,98135.47
2022-10-18T07:58:35.111Z,98147.47
2022-10-18T08:01:03.322Z,98141.94
2022-10-18T08:03:29.684Z,98140.22
2022-10-18T08:05:56.096Z,98153.66
2022-10-18T08:08:23.387Z,98153.94
2022-10-18T08:10:50.173Z,98160.75
2022-10-18T08:13:17.030Z,98161.22
2022-10-18T08:15:43.920Z,98153.97
2022-10-18T08:18:10.824Z,98165.06
2022-10-18T08:20:37.735Z,98171.06
2022-10-18T08:23:04.679Z,98180.75
2022-10-18T08:25:31.315Z,98167.06
2022-10-18T08:27:59.197Z,98162.13
2022-10-18T08:30:25.640Z,98178.00
2022-10-18T08:32:52.084Z,98186.78
2022-10-18T08:35:18.499Z,98168.28
2022-10-18T08:37:45.336Z,98179.06
2022-10-18T08:40:15.590Z,98190.16
2022-10-18T08:43:04.944Z,98184.47
2022-10-18T08:45:42.243Z,98190.63
2022-10-18T08:48:19.372Z,98197.91
2022-10-18T08:50:46.702Z,98192.78
2022-10-18T08:53:49.786Z,98202.97
2022-10-18T08:56:21.449Z,98197.91
2022-10-18T08:58:47.804Z,98198.78
2022-10-18T09:01:25.786Z,98209.59
2022-10-18T09:04:11.147Z,98209.44
2022-10-18T09:07:02.342Z,98207.91
2022-10-18T09:09:37.899Z,98212.69
2022-10-18T09:12:32.541Z,98210.84
2022-10-18T09:15:23.569Z,98203.72
2022-10-18T09:17:53.126Z,98207.59
2022-10-18T09:20:22.763Z,98193.25
2022-10-18T09:23:02.488Z,98193.41
2022-10-18T09:25:36.993Z,98186.66
2022-10-18T09:28:16.794Z,98184.16
2022-10-18T09:30:59.791Z,98183.22
2022-10-18T09:33:49.310Z,98189.56
2022-10-18T09:36:23.321Z,98183.56
2022-10-18T09:38:57.364Z,98202.03
2022-10-18T09:41:47.463Z,98201.75
2022-10-18T09:44:27.859Z,98204.50
2022-10-18T09:47:05.491Z,98199.75
2022-10-18T09:49:40.244Z,98202.81
2022-10-18T09:52:13.792Z,98186.63
2022-10-18T09:54:49.533Z,98196.34
2022-10-18T09:57:36.834Z,98198.34
2022-10-18T10:00:06.928Z,98186.91
2022-10-18T10:02:33.379Z,98203.75
2022-10-18T10:04:59.772Z,98201.72
2022-10-18T10:07:32.535Z,98207.16
2022-10-18T10:10:06.407Z,98218.25
2022-10-18T10:12:36.674Z,98212.84
2022-10-18T10:15:23.254Z,98234.25
2022-10-18T10:18:01.772Z,98230.84
2022-10-18T10:20:42.848Z,98230.09
2022-10-18T10:25:53.668Z,98229.34
2022-10-18T10:28:23.852Z,98228.41
2022-10-18T10:30:50.374Z,98238.72
2022-10-18T10:33:36.442Z,98236.09
2022-10-18T10:36:06.934Z,98221.94
2022-10-18T10:38:33.285Z,98227.47
2022-10-18T10:40:59.924Z,98214.22
2022-10-18T10:43:38.669Z,98235.16
2022-10-18T10:46:05.886Z,98235.31
2022-10-18T10:48:53.774Z,98242.75
2022-10-18T10:51:38.361Z,98243.63
2022-10-18T10:54:17.611Z,98246.84
2022-10-18T10:56:53.158Z,98253.00
2022-10-18T10:59:21.856Z,98245.63
2022-10-18T11:01:50.151Z,98234.19
2022-10-18T11:04:29.003Z,98244.38
2022-10-18T11:07:12.478Z,98248.06
2022-10-18T11:09:50.833Z,98244.06
2022-10-18T11:12:26.656Z,98230.59
2022-10-18T11:15:02.774Z,98230.22
2022-10-18T11:17:37.299Z,98244.41
2022-10-18T11:20:03.672Z,98245.81
2022-10-18T11:22:36.355Z,98227.59
2022-10-18T11:25:05.352Z,98232.22
2022-10-18T11:27:38.043Z,98239.63
2022-10-18T11:30:35.918Z,98234.22
2022-10-18T11:33:56.225Z,98241.34
2022-10-18T11:36:27.611Z,98237.94
2022-10-18T11:38:53.912Z,98244.84
2022-10-18T11:41:29.244Z,98238.09
2022-10-18T11:44:04.188Z,98240.13
2022-10-18T11:46:51.630Z,98240.72
2022-10-18T11:49:34.627Z,98237.59
2022-10-18T11:52:23.762Z,98240.38
2022-10-18T11:55:18.591Z,98233.50
2022-10-18T11:57:53.800Z,98239.03
2022-10-18T12:00:32.349Z,98243.06
2022-10-18T12:03:27.028Z,98243.88
2022-10-18T12:05:57.398Z,98236.16
2022-10-18T12:08:23.702Z,98234.50
2022-10-18T12:11:04.558Z,98223.88
2022-10-18T12:13:44.347Z,98222.69
2022-10-18T12:16:11.186Z,98232.25
2022-10-18T12:21:25.935Z,98229.63
2022-10-18T12:24:18.671Z,98218.06
2022-10-18T12:26:48.567Z,98212.84
2022-10-18T12:29:26.969Z,98219.03
2022-10-18T12:31:58.063Z,98208.38
2022-10-18T12:34:45.393Z,98207.59
2022-10-18T12:37:36.174Z,98224.22
2022-10-18T12:40:20.451Z,98217.63
2022-10-18T12:42:50.803Z,98215.75
2022-10-18T12:45:25.096Z,98215.75
2022-10-18T12:47:52.044Z,98218.31
2022-10-18T12:50:31.132Z,98209.41
2022-10-18T12:53:06.746Z,98221.84
2022-10-18T12:55:38.807Z,98213.25
2022-10-18T12:58:22.191Z,98219.38
2022-10-18T13:00:48.860Z,98220.31
2022-10-18T13:03:18.101Z,98217.22
2022-10-18T13:05:55.948Z,98220.16
2022-10-18T13:08:28.773Z,98214.47
2022-10-18T13:11:01.221Z,98220.00
2022-10-18T13:14:09.821Z,98213.09
2022-10-18T13:17:14.411Z,98215.53
2022-10-18T13:20:02.837Z,98215.16
2022-10-18T13:22:58.197Z,98222.50
2022-10-18T13:25:39.684Z,98212.06
2022-10-18T13:28:24.795Z,98217.19
2022-10-18T13:31:28.773Z,98220.94
2022-10-18T13:33:55.487Z,98209.41
2022-10-18T13:36:28.441Z,98221.59
2022-10-18T13:38:57.862Z,98214.63
2022-10-18T13:41:49.911Z,98224.38
2022-10-18T13:44:31.686Z,98216.06
2022-10-18T13:46:57.976Z,98220.97
2022-10-18T13:49:30.463Z,98229.94
2022-10-18T13:52:19.565Z,98226.56
2022-10-18T13:55:13.809Z,98232.41
2022-10-18T13:57:52.398Z,98234.88
2022-10-18T14:00:37.530Z,98235.47
2022-10-18T14:03:51.789Z,98237.06
2022-10-18T14:06:27.291Z,98241.22
2022-10-18T14:09:25.585Z,98231.19
2022-10-18T14:12:20.812Z,98237.22
2022-10-18T14:15:03.305Z,98236.13
2022-10-18T14:17:44.085Z,98232.91
2022-10-18T14:20:36.930Z,98229.47
2022-10-18T14:23:44.584Z,98247.38
2022-10-18T14:26:16.471Z,98242.28
2022-10-18T14:29:00.191Z,98245.84
2022-10-18T14:31:27.505Z,98246.16
2022-10-18T14:33:58.034Z,98249.88
2022-10-18T14:36:27.524Z,98244.75
2022-10-18T14:39:00.249Z,98257.53
2022-10-18T14:41:30.203Z,98260.81
2022-10-18T14:44:30.727Z,98255.56
2022-10-18T14:47:03.071Z,98246.63
2022-10-18T14:49:30.839Z,98247.22
2022-10-18T14:51:59.950Z,98239.34
2022-10-18T14:54:36.161Z,98252.34
2022-10-18T14:57:04.606Z,98240.63
2022-10-18T14:59:37.416Z,98242.63
2022-10-18T15:02:17.782Z,98255.28
2022-10-18T15:04:45.761Z,98252.34
2022-10-18T15:07:17.296Z,98253.44
2022-10-18T15:09:44.702Z,98250.16
2022-10-18T15:12:14.706Z,98247.84
2022-10-18T15:14:42.498Z,98252.47
2022-10-18T15:17:15.630Z,98256.63
2022-10-18T15:19:54.008Z,98263.59
2022-10-18T15:22:31.626Z,98252.34
2022-10-18T15:25:16.971Z,98259.88
2022-10-18T15:27:49.957Z,98252.03
2022-10-18T15:30:40.958Z,98266.34
2022-10-18T15:33:10.720Z,98263.91
2022-10-18T15:35:38.870Z,98257.13
2022-10-18T15:38:17.351Z,98247.09
2022-10-18T15:40:44.114Z,98243.41
2022-10-18T15:43:25.599Z,98266.66
2022-10-18T15:45:53.142Z,98258.03
2022-10-18T15:48:25.523Z,98260.19
2022-10-18T15:50:55.163Z,98246.47
2022-10-18T15:53:22.506Z,98256.34
2022-10-18T15:55:57.573Z,98248.63
2022-10-18T15:58:46.375Z,98256.94
2022-10-18T16:01:34.238Z,98248.16
2022-10-18T16:04:05.024Z,98253.41
2022-10-18T16:06:35.159Z,98249.84
2022-10-18T16:09:01.517Z,98253.56
2022-10-18T16:11:28.378Z,98249.69
2022-10-18T16:13:57.815Z,98244.75
2022-10-18T16:16:28.811Z,98254.00
2022-10-18T16:18:56.364Z,98258.78
2022-10-18T16:21:29.043Z,98249.50
2022-10-18T16:23:55.908Z,98241.81
2022-10-18T16:26:23.206Z,98245.63
2022-10-18T16:28:50.244Z,98250.09
2022-10-18T16:31:19.993Z,98243.59
2022-10-18T16:33:46.973Z,98245.91
2022-10-18T16:36:15.765Z,98252.34
2022-10-18T16:38:42.448Z,98256.34
2022-10-18T16:41:09.778Z,98250.75
2022-10-18T16:43:36.567Z,98260.16
2022-10-18T16:46:04.322Z,98271.28
2022-10-18T16:48:31.072Z,98260.59
2022-10-18T16:50:58.255Z,98268.25
2022-10-18T16:53:25.231Z,98268.03
2022-10-18T16:55:58.379Z,98271.84
2022-10-18T16:58:25.884Z,98283.88
2022-10-18T17:00:52.516Z,98272.44
2022-10-18T17:03:19.353Z,98272.75
2022-10-18T17:05:45.774Z,98277.16
2022-10-18T17:08:19.837Z,98281.13
2022-10-18T17:10:47.644Z,98276.81
2022-10-18T17:13:14.125Z,98290.19
2022-10-18T17:15:43.140Z,98289.22
2022-10-18T17:18:27.674Z,98292.63
2022-10-18T17:20:54.311Z,98297.09
2022-10-18T17:23:20.696Z,98289.66
2022-10-18T17:25:59.134Z,98301.06
2022-10-18T17:28:33.606Z,98295.97
2022-10-18T17:31:00.102Z,98303.81
2022-10-18T17:33:26.515Z,98300.34
2022-10-18T17:35:52.869Z,98300.06
2022-10-18T17:38:19.248Z,98304.31
2022-10-18T17:40:45.610Z,98288.09
2022-10-18T17:43:13.550Z,98304.31
2022-10-18T17:45:51.045Z,98296.47
2022-10-18T17:48:17.665Z,98299.16
2022-10-18T17:50:44.024Z,98295.72
2022-10-18T17:53:11.929Z,98310.81
2022-10-18T17:55:39.068Z,98308.41
2022-10-18T17:58:05.518Z,98307.06
2022-10-18T18:00:31.905Z,98310.53
2022-10-18T18:02:59.256Z,98304.16
2022-10-18T18:05:25.749Z,98304.34
2022-10-18T18:07:52.176Z,98302.22
2022-10-18T18:10:18.605Z,98306.84
2022-10-18T18:12:45.491Z,98308.03
2022-10-18T18:15:12.792Z,98311.53
2022-10-18T18:17:56.142Z,98306.44
2022-10-18T18:20:24.260Z,98303.41
2022-10-18T18:22:51.407Z,98319.38
2022-10-18T18:25:17.776Z,98317.91
2022-10-18T18:27:44.223Z,98309.03
2022-10-18T18:30:11.052Z,98318.13
2022-10-18T18:32:37.397Z,98318.00
2022-10-18T18:35:04.113Z,98311.63
2022-10-18T18:37:30.587Z,98319.00
2022-10-18T18:39:56.969Z,98312.03
2022-10-18T18:42:23.925Z,98323.53
2022-10-18T18:44:50.300Z,98325.28
2022-10-18T18:47:19.644Z,98323.91
2022-10-18T18:49:46.017Z,98320.53
2022-10-18T18:52:12.365Z,98325.38
2022-10-18T18:54:38.736Z,98333.88
2022-10-18T18:57:06.340Z,98327.78
2022-10-18T18:59:32.687Z,98334.78
2022-10-18T19:01:59.017Z,98325.94
2022-10-18T19:04:25.444Z,98332.44
2022-10-18T19:06:51.848Z,98322.09
2022-10-18T19:09:26.371Z,98324.00
2022-10-18T19:11:55.087Z,98330.72
2022-10-18T19:14:23.636Z,98329.84
2022-10-18T19:16:53.243Z,98325.66
2022-10-18T19:19:22.100Z,98336.00
2022-10-18T19:21:54.361Z,98339.03
2022-10-18T19:24:23.491Z,98342.88
2022-10-18T19:27:12.320Z,98339.81
2022-10-18T19:29:39.931Z,98330.72
2022-10-18T19:32:08.808Z,98331.34
2022-10-18T19:34:35.455Z,98323.16
2022-10-18T19:37:02.202Z,98333.00
2022-10-18T19:39:30.957Z,98335.94
2022-10-18T19:42:03.251Z,98322.47
2022-10-18T19:44:31.879Z,98332.34
2022-10-18T19:46:58.673Z,98327.22
2022-10-18T19:49:25.976Z,98331.19
2022-10-18T19:51:52.484Z,98320.16
2022-10-18T19:54:19.031Z,98326.72
2022-10-18T19:56:45.505Z,98337.97
2022-10-18T19:59:14.694Z,98342.28
2022-10-18T20:01:41.771Z,98328.75
2022-10-18T20:04:09.563Z,98325.28
2022-10-18T20:06:37.581Z,98331.47
2022-10-18T20:09:05.528Z,98330.31
2022-10-18T20:11:32.129Z,98324.69
2022-10-18T20:13:59.661Z,98324.66
2022-10-18T20:16:28.854Z,98337.22
2022-10-18T20:19:00.620Z,98333.25
2022-10-18T20:21:28.868Z,98334.59
2022-10-18T20:23:55.660Z,98326.59
2022-10-18T20:26:23.144Z,98327.56
2022-10-18T20:28:57.031Z,98341.50
2022-10-18T20:31:35.499Z,98335.88
2022-10-18T20:34:04.045Z,98329.47
2022-10-18T20:36:31.852Z,98335.97
2022-10-18T20:38:58.934Z,98323.88
2022-10-18T20:41:28.259Z,98325.22
2022-10-18T20:44:02.569Z,98308.75
2022-10-18T20:46:35.504Z,98317.22
2022-10-18T20:49:02.943Z,98316.63
2022-10-18T20:51:29.366Z,98315.84
2022-10-18T20:53:55.927Z,98324.09
2022-10-18T20:56:26.350Z,98320.50
2022-10-18T20:58:55.675Z,98307.25
2022-10-18T21:01:22.956Z,98313.09
2022-10-18T21:03:51.305Z,98297.66
2022-10-18T21:06:25.439Z,98318.25
2022-10-18T21:08:54.503Z,98308.25
2022-10-18T21:11:21.832Z,98328.25
2022-10-18T21:13:59.991Z,98324.59
2022-10-18T21:16:27.231Z,98313.25
2022-10-18T21:18:53.735Z,98314.09
2022-10-18T21:21:24.951Z,98322.19
2022-10-18T21:23:52.304Z,98304.59
2022-10-18T21:26:22.076Z,98325.84
2022-10-18T21:28:53.364Z,98314.88
2022-10-18T21:31:22.696Z,98322.53
2022-10-18T21:33:57.034Z,98317.09
2022-10-18T21:36:24.276Z,98304.06
2022-10-18T21:38:50.837Z,98298.94
2022-10-18T21:41:18.349Z,98309.03
2022-10-18T21:43:53.425Z,98310.06
2022-10-18T21:46:22.475Z,98312.81
2022-10-18T21:48:51.732Z,98309.72
2022-10-18T21:51:19.916Z,98316.69
2022-10-18T21:53:48.255Z,98305.47
2022-10-18T21:56:26.610Z,98308.63
2022-10-18T21:58:53.199Z,98314.41
2022-10-18T22:01:33.895Z,98316.25
2022-10-18T22:04:02.033Z,98309.47
2022-10-18T22:06:32.233Z,98300.75
2022-10-18T22:09:01.779Z,98299.50
2022-10-18T22:11:31.514Z,98304.44
2022-10-18T22:13:58.112Z,98301.28
2022-10-18T22:16:25.008Z,98302.03
2022-10-18T22:18:52.349Z,98291.84
2022-10-18T22:21:20.230Z,98304.94
2022-10-18T22:23:49.171Z,98293.66
2022-10-18T22:26:20.033Z,98297.75
2022-10-18T22:28:47.569Z,98274.66
2022-10-18T22:31:16.740Z,98291.75
2022-10-18T22:33:43.400Z,98267.75
2022-10-18T22:36:09.973Z,98278.47
2022-10-18T22:38:37.638Z,98273.66
2022-10-18T22:41:06.186Z,98278.00
2022-10-18T22:43:32.848Z,98275.59
2022-10-18T22:46:06.659Z,98276.97
2022-10-18T22:48:33.486Z,98274.66
2022-10-18T22:51:00.225Z,98270.22
2022-10-18T22:53:27.611Z,98278.44
2022-10-18T22:55:54.077Z,98271.78
2022-10-18T22:58:20.876Z,98270.91
2022-10-18T23:00:47.504Z,98271.69
2022-10-18T23:03:18.576Z,98265.13
2022-10-18T23:05:46.617Z,98272.56
2022-10-18T23:08:14.479Z,98280.59
2022-10-18T23:10:42.462Z,98282.16
2022-10-18T23:13:10.520Z,98274.81
2022-10-18T23:15:39.001Z,98270.16
2022-10-18T23:18:06.008Z,98273.06
2022-10-18T23:20:32.390Z,98267.06
2022-10-18T23:22:58.763Z,98274.50
2022-10-18T23:25:25.204Z,98281.97
2022-10-18T23:27:51.554Z,98267.56
2022-10-18T23:30:17.997Z,98274.91
2022-10-18T23:32:44.343Z,98276.03
2022-10-18T23:35:10.787Z,98284.66
2022-10-18T23:37:37.412Z,98289.78
2022-10-18T23:40:04.320Z,98292.97
2022-10-18T23:42:30.651Z,98283.09
2022-10-18T23:44:57.005Z,98276.22
2022-10-18T23:47:23.375Z,98286.09
2022-10-18T23:49:49.722Z,98282.22
2022-10-18T23:52:16.165Z,98280.19
2022-10-18T23:57:13.961Z,98285.38
2022-10-18T23:59:40.320Z,98288.19
